sensor_id;sensor_type;location;lat;lon;timestamp;P1;durP1;ratioP1;P2;durP2;ratioP2
20427;SDS011;10373;49.768;18.302;2022-08-30T00:01:11;3.42;;;2.67;;
20427;SDS011;10373;49.768;18.302;2022-08-30T00:03:44;3.42;;;2.67;;
20427;SDS011;10373;49.768;18.302;2022-08-30T00:06:10;3.72;;;2.92;;
20427;SDS011;10373;49.768;18.302;2022-08-30T00:08:38;5.70;;;3.00;;
20427;SDS011;10373;49.768;18.302;2022-08-30T00:11:05;4.03;;;2.88;;
20427;SDS011;10373;49.768;18.302;2022-08-30T00:13:34;4.22;;;2.60;;
20427;SDS011;10373;49.768;18.302;2022-08-30T00:16:00;4.75;;;2.95;;
20427;SDS011;10373;49.768;18.302;2022-08-30T00:18:26;3.20;;;2.88;;
20427;SDS011;10373;49.768;18.302;2022-08-30T00:20:52;3.83;;;2.92;;
20427;SDS011;10373;49.768;18.302;2022-08-30T00:23:20;5.07;;;3.13;;
20427;SDS011;10373;49.768;18.302;2022-08-30T00:25:46;5.35;;;3.22;;
20427;SDS011;10373;49.768;18.302;2022-08-30T00:28:12;3.33;;;3.03;;
20427;SDS011;10373;49.768;18.302;2022-08-30T00:30:38;2.95;;;2.40;;
20427;SDS011;10373;49.768;18.302;2022-08-30T00:33:05;3.22;;;2.50;;
20427;SDS011;10373;49.768;18.302;2022-08-30T00:35:30;3.08;;;2.45;;
20427;SDS011;10373;49.768;18.302;2022-08-30T00:37:56;3.70;;;3.00;;
20427;SDS011;10373;49.768;18.302;2022-08-30T00:40:22;4.07;;;3.05;;
20427;SDS011;10373;49.768;18.302;2022-08-30T00:42:48;3.85;;;2.90;;
20427;SDS011;10373;49.768;18.302;2022-08-30T00:45:16;4.07;;;2.90;;
20427;SDS011;10373;49.768;18.302;2022-08-30T00:48:01;4.60;;;2.88;;
20427;SDS011;10373;49.768;18.302;2022-08-30T00:50:30;3.22;;;2.80;;
20427;SDS011;10373;49.768;18.302;2022-08-30T00:53:03;3.13;;;2.83;;
20427;SDS011;10373;49.768;18.302;2022-08-30T00:55:33;4.40;;;3.25;;
20427;SDS011;10373;49.768;18.302;2022-08-30T00:58:01;3.00;;;2.70;;
20427;SDS011;10373;49.768;18.302;2022-08-30T01:00:30;4.55;;;2.92;;
20427;SDS011;10373;49.768;18.302;2022-08-30T01:02:56;5.00;;;2.80;;
20427;SDS011;10373;49.768;18.302;2022-08-30T01:05:22;3.47;;;2.65;;
20427;SDS011;10373;49.768;18.302;2022-08-30T01:07:48;3.75;;;2.53;;
20427;SDS011;10373;49.768;18.302;2022-08-30T01:10:14;4.35;;;2.83;;
20427;SDS011;10373;49.768;18.302;2022-08-30T01:12:42;5.07;;;3.13;;
20427;SDS011;10373;49.768;18.302;2022-08-30T01:15:09;4.40;;;2.97;;
20427;SDS011;10373;49.768;18.302;2022-08-30T01:17:38;4.30;;;3.20;;
20427;SDS011;10373;49.768;18.302;2022-08-30T01:20:17;4.00;;;3.03;;
20427;SDS011;10373;49.768;18.302;2022-08-30T01:25:15;3.65;;;3.13;;
20427;SDS011;10373;49.768;18.302;2022-08-30T01:27:46;2.95;;;2.58;;
20427;SDS011;10373;49.768;18.302;2022-08-30T01:30:16;3.85;;;2.63;;
20427;SDS011;10373;49.768;18.302;2022-08-30T01:32:43;4.50;;;3.03;;
20427;SDS011;10373;49.768;18.302;2022-08-30T01:35:12;3.45;;;3.10;;
20427;SDS011;10373;49.768;18.302;2022-08-30T01:37:40;6.35;;;2.83;;
20427;SDS011;10373;49.768;18.302;2022-08-30T01:40:06;4.82;;;2.90;;
20427;SDS011;10373;49.768;18.302;2022-08-30T01:42:33;3.78;;;2.85;;
20427;SDS011;10373;49.768;18.302;2022-08-30T01:44:59;4.18;;;3.30;;
20427;SDS011;10373;49.768;18.302;2022-08-30T01:47:24;3.75;;;3.08;;
20427;SDS011;10373;49.768;18.302;2022-08-30T01:49:51;4.95;;;3.25;;
20427;SDS011;10373;49.768;18.302;2022-08-30T01:52:19;4.65;;;3.30;;
20427;SDS011;10373;49.768;18.302;2022-08-30T01:54:45;4.07;;;2.80;;
20427;SDS011;10373;49.768;18.302;2022-08-30T01:57:13;3.03;;;2.72;;
20427;SDS011;10373;49.768;18.302;2022-08-30T01:59:42;4.35;;;2.75;;
20427;SDS011;10373;49.768;18.302;2022-08-30T02:02:12;4.35;;;2.70;;
20427;SDS011;10373;49.768;18.302;2022-08-30T02:04:40;3.90;;;2.70;;
20427;SDS011;10373;49.768;18.302;2022-08-30T02:07:06;4.20;;;2.90;;
20427;SDS011;10373;49.768;18.302;2022-08-30T02:09:32;3.53;;;2.85;;
20427;SDS011;10373;49.768;18.302;2022-08-30T02:11:58;4.38;;;2.90;;
20427;SDS011;10373;49.768;18.302;2022-08-30T02:14:24;2.80;;;2.55;;
20427;SDS011;10373;49.768;18.302;2022-08-30T02:16:49;4.60;;;3.33;;
20427;SDS011;10373;49.768;18.302;2022-08-30T02:19:15;3.55;;;2.90;;
20427;SDS011;10373;49.768;18.302;2022-08-30T02:21:41;3.55;;;2.97;;
20427;SDS011;10373;49.768;18.302;2022-08-30T02:24:07;3.50;;;3.20;;
20427;SDS011;10373;49.768;18.302;2022-08-30T02:26:33;6.10;;;2.97;;
20427;SDS011;10373;49.768;18.302;2022-08-30T02:29:00;3.55;;;3.08;;
20427;SDS011;10373;49.768;18.302;2022-08-30T02:31:29;4.65;;;2.80;;
20427;SDS011;10373;49.768;18.302;2022-08-30T02:33:55;3.55;;;3.20;;
20427;SDS011;10373;49.768;18.302;2022-08-30T02:36:21;7.00;;;3.40;;
20427;SDS011;10373;49.768;18.302;2022-08-30T02:38:47;4.18;;;2.85;;
20427;SDS011;10373;49.768;18.302;2022-08-30T02:41:14;3.17;;;2.75;;
20427;SDS011;10373;49.768;18.302;2022-08-30T02:43:41;3.40;;;3.10;;
20427;SDS011;10373;49.768;18.302;2022-08-30T02:46:06;4.40;;;3.08;;
20427;SDS011;10373;49.768;18.302;2022-08-30T02:48:32;4.13;;;2.92;;
20427;SDS011;10373;49.768;18.302;2022-08-30T02:51:02;3.15;;;2.95;;
20427;SDS011;10373;49.768;18.302;2022-08-30T02:53:33;5.78;;;3.30;;
20427;SDS011;10373;49.768;18.302;2022-08-30T02:55:58;4.63;;;3.00;;
20427;SDS011;10373;49.768;18.302;2022-08-30T02:58:24;4.43;;;3.20;;
20427;SDS011;10373;49.768;18.302;2022-08-30T03:00:50;3.30;;;2.63;;
20427;SDS011;10373;49.768;18.302;2022-08-30T03:03:16;4.32;;;3.50;;
20427;SDS011;10373;49.768;18.302;2022-08-30T03:05:42;3.55;;;3.20;;
20427;SDS011;10373;49.768;18.302;2022-08-30T03:08:08;5.80;;;3.30;;
20427;SDS011;10373;49.768;18.302;2022-08-30T03:10:35;5.50;;;3.20;;
20427;SDS011;10373;49.768;18.302;2022-08-30T03:13:02;4.25;;;3.03;;
20427;SDS011;10373;49.768;18.302;2022-08-30T03:15:30;3.95;;;3.20;;
20427;SDS011;10373;49.768;18.302;2022-08-30T03:17:56;3.92;;;3.30;;
20427;SDS011;10373;49.768;18.302;2022-08-30T03:20:22;4.68;;;3.65;;
20427;SDS011;10373;49.768;18.302;2022-08-30T03:22:49;5.47;;;3.28;;
20427;SDS011;10373;49.768;18.302;2022-08-30T03:25:15;4.38;;;3.53;;
20427;SDS011;10373;49.768;18.302;2022-08-30T03:27:41;3.65;;;3.30;;
20427;SDS011;10373;49.768;18.302;2022-08-30T03:30:07;5.22;;;3.20;;
20427;SDS011;10373;49.768;18.302;2022-08-30T03:32:33;3.50;;;3.20;;
20427;SDS011;10373;49.768;18.302;2022-08-30T03:34:59;4.03;;;3.40;;
20427;SDS011;10373;49.768;18.302;2022-08-30T03:37:25;3.85;;;3.22;;
20427;SDS011;10373;49.768;18.302;2022-08-30T03:39:52;4.18;;;3.25;;
20427;SDS011;10373;49.768;18.302;2022-08-30T03:42:18;4.13;;;3.63;;
20427;SDS011;10373;49.768;18.302;2022-08-30T03:45:17;3.25;;;2.95;;
20427;SDS011;10373;49.768;18.302;2022-08-30T03:47:44;4.10;;;2.72;;
20427;SDS011;10373;49.768;18.302;2022-08-30T03:50:11;4.68;;;2.95;;
20427;SDS011;10373;49.768;18.302;2022-08-30T03:52:37;4.40;;;3.20;;
20427;SDS011;10373;49.768;18.302;2022-08-30T03:55:03;3.38;;;3.08;;
20427;SDS011;10373;49.768;18.302;2022-08-30T03:57:52;4.53;;;3.58;;
20427;SDS011;10373;49.768;18.302;2022-08-30T04:00:18;5.22;;;3.30;;
20427;SDS011;10373;49.768;18.302;2022-08-30T04:02:44;7.07;;;3.60;;
20427;SDS011;10373;49.768;18.302;2022-08-30T04:05:10;7.57;;;3.47;;
20427;SDS011;10373;49.768;18.302;2022-08-30T04:07:37;5.45;;;3.47;;
20427;SDS011;10373;49.768;18.302;2022-08-30T04:10:07;5.35;;;3.60;;
20427;SDS011;10373;49.768;18.302;2022-08-30T04:12:33;4.97;;;3.00;;
20427;SDS011;10373;49.768;18.302;2022-08-30T04:14:59;3.75;;;3.20;;
20427;SDS011;10373;49.768;18.302;2022-08-30T04:17:25;5.38;;;3.38;;
20427;SDS011;10373;49.768;18.302;2022-08-30T04:19:50;7.00;;;3.17;;
20427;SDS011;10373;49.768;18.302;2022-08-30T04:22:17;3.95;;;3.28;;
20427;SDS011;10373;49.768;18.302;2022-08-30T04:24:43;4.03;;;3.30;;
20427;SDS011;10373;49.768;18.302;2022-08-30T04:27:08;5.50;;;3.65;;
20427;SDS011;10373;49.768;18.302;2022-08-30T04:29:34;4.35;;;3.38;;
20427;SDS011;10373;49.768;18.302;2022-08-30T04:32:00;5.70;;;3.53;;
20427;SDS011;10373;49.768;18.302;2022-08-30T04:34:26;5.15;;;3.47;;
20427;SDS011;10373;49.768;18.302;2022-08-30T04:36:53;5.68;;;3.75;;
20427;SDS011;10373;49.768;18.302;2022-08-30T04:39:19;4.05;;;3.40;;
20427;SDS011;10373;49.768;18.302;2022-08-30T04:41:44;5.97;;;3.75;;
20427;SDS011;10373;49.768;18.302;2022-08-30T04:44:11;5.03;;;3.10;;
20427;SDS011;10373;49.768;18.302;2022-08-30T04:46:36;3.75;;;3.15;;
20427;SDS011;10373;49.768;18.302;2022-08-30T04:49:03;3.58;;;3.17;;
20427;SDS011;10373;49.768;18.302;2022-08-30T04:51:29;3.92;;;3.53;;
20427;SDS011;10373;49.768;18.302;2022-08-30T04:53:55;5.05;;;3.70;;
20427;SDS011;10373;49.768;18.302;2022-08-30T04:56:21;5.03;;;3.63;;
20427;SDS011;10373;49.768;18.302;2022-08-30T04:58:48;4.03;;;3.42;;
20427;SDS011;10373;49.768;18.302;2022-08-30T05:01:21;3.83;;;3.40;;
20427;SDS011;10373;49.768;18.302;2022-08-30T05:03:49;3.45;;;3.10;;
20427;SDS011;10373;49.768;18.302;2022-08-30T05:06:16;6.03;;;3.17;;
20427;SDS011;10373;49.768;18.302;2022-08-30T05:08:43;3.85;;;3.15;;
20427;SDS011;10373;49.768;18.302;2022-08-30T05:11:09;5.90;;;3.47;;
20427;SDS011;10373;49.768;18.302;2022-08-30T05:13:35;3.55;;;3.25;;
20427;SDS011;10373;49.768;18.302;2022-08-30T05:16:01;4.00;;;3.40;;
20427;SDS011;10373;49.768;18.302;2022-08-30T05:18:28;4.15;;;2.88;;
20427;SDS011;10373;49.768;18.302;2022-08-30T05:21:05;5.45;;;3.42;;
20427;SDS011;10373;49.768;18.302;2022-08-30T05:23:32;4.03;;;3.22;;
20427;SDS011;10373;49.768;18.302;2022-08-30T05:26:02;3.50;;;3.20;;
20427;SDS011;10373;49.768;18.302;2022-08-30T05:28:33;6.00;;;3.42;;
20427;SDS011;10373;49.768;18.302;2022-08-30T05:30:59;5.43;;;3.47;;
20427;SDS011;10373;49.768;18.302;2022-08-30T05:33:26;3.97;;;3.45;;
20427;SDS011;10373;49.768;18.302;2022-08-30T05:35:55;5.72;;;3.47;;
20427;SDS011;10373;49.768;18.302;2022-08-30T05:38:21;5.43;;;3.60;;
20427;SDS011;10373;49.768;18.302;2022-08-30T05:40:47;4.82;;;3.40;;
20427;SDS011;10373;49.768;18.302;2022-08-30T05:43:14;4.82;;;3.60;;
20427;SDS011;10373;49.768;18.302;2022-08-30T05:45:39;5.18;;;3.83;;
20427;SDS011;10373;49.768;18.302;2022-08-30T05:48:05;6.22;;;4.88;;
20427;SDS011;10373;49.768;18.302;2022-08-30T05:50:31;7.00;;;5.18;;
20427;SDS011;10373;49.768;18.302;2022-08-30T05:52:56;6.18;;;4.47;;
20427;SDS011;10373;49.768;18.302;2022-08-30T05:55:22;4.25;;;3.85;;
20427;SDS011;10373;49.768;18.302;2022-08-30T05:57:48;5.47;;;3.47;;
20427;SDS011;10373;49.768;18.302;2022-08-30T06:00:15;4.65;;;4.03;;
20427;SDS011;10373;49.768;18.302;2022-08-30T06:02:42;6.47;;;4.15;;
20427;SDS011;10373;49.768;18.302;2022-08-30T06:05:08;4.63;;;3.88;;
20427;SDS011;10373;49.768;18.302;2022-08-30T06:07:34;5.22;;;4.00;;
20427;SDS011;10373;49.768;18.302;2022-08-30T06:10:00;5.38;;;4.32;;
20427;SDS011;10373;49.768;18.302;2022-08-30T06:12:26;5.72;;;4.45;;
20427;SDS011;10373;49.768;18.302;2022-08-30T06:14:52;7.03;;;4.57;;
20427;SDS011;10373;49.768;18.302;2022-08-30T06:17:20;4.97;;;4.30;;
20427;SDS011;10373;49.768;18.302;2022-08-30T06:19:55;7.10;;;4.28;;
20427;SDS011;10373;49.768;18.302;2022-08-30T06:22:20;5.18;;;4.28;;
20427;SDS011;10373;49.768;18.302;2022-08-30T06:24:46;5.78;;;4.18;;
20427;SDS011;10373;49.768;18.302;2022-08-30T06:27:12;4.80;;;4.03;;
20427;SDS011;10373;49.768;18.302;2022-08-30T06:29:38;5.57;;;4.65;;
20427;SDS011;10373;49.768;18.302;2022-08-30T06:32:03;5.78;;;3.92;;
20427;SDS011;10373;49.768;18.302;2022-08-30T06:34:29;6.10;;;4.60;;
20427;SDS011;10373;49.768;18.302;2022-08-30T06:36:55;5.65;;;3.72;;
20427;SDS011;10373;49.768;18.302;2022-08-30T06:39:20;7.53;;;4.57;;
20427;SDS011;10373;49.768;18.302;2022-08-30T06:41:47;5.38;;;4.38;;
20427;SDS011;10373;49.768;18.302;2022-08-30T06:44:15;7.38;;;4.47;;
20427;SDS011;10373;49.768;18.302;2022-08-30T06:46:41;5.78;;;4.43;;
20427;SDS011;10373;49.768;18.302;2022-08-30T06:49:07;6.88;;;4.40;;
20427;SDS011;10373;49.768;18.302;2022-08-30T06:51:34;6.13;;;5.10;;
20427;SDS011;10373;49.768;18.302;2022-08-30T06:54:02;6.63;;;4.78;;
20427;SDS011;10373;49.768;18.302;2022-08-30T06:56:28;5.88;;;4.90;;
20427;SDS011;10373;49.768;18.302;2022-08-30T06:58:54;6.00;;;4.88;;
20427;SDS011;10373;49.768;18.302;2022-08-30T07:01:21;8.95;;;6.35;;
20427;SDS011;10373;49.768;18.302;2022-08-30T07:03:49;9.02;;;6.03;;
20427;SDS011;10373;49.768;18.302;2022-08-30T07:06:15;10.68;;;8.10;;
20427;SDS011;10373;49.768;18.302;2022-08-30T07:08:42;9.27;;;6.45;;
20427;SDS011;10373;49.768;18.302;2022-08-30T07:11:08;10.90;;;6.78;;
20427;SDS011;10373;49.768;18.302;2022-08-30T07:13:34;15.32;;;8.90;;
20427;SDS011;10373;49.768;18.302;2022-08-30T07:16:07;11.82;;;8.43;;
20427;SDS011;10373;49.768;18.302;2022-08-30T07:18:37;16.45;;;10.77;;
20427;SDS011;10373;49.768;18.302;2022-08-30T07:21:16;15.25;;;10.05;;
20427;SDS011;10373;49.768;18.302;2022-08-30T07:23:59;12.23;;;8.02;;
20427;SDS011;10373;49.768;18.302;2022-08-30T07:26:34;16.88;;;11.38;;
20427;SDS011;10373;49.768;18.302;2022-08-30T07:29:01;14.63;;;9.98;;
20427;SDS011;10373;49.768;18.302;2022-08-30T07:31:28;11.23;;;8.05;;
20427;SDS011;10373;49.768;18.302;2022-08-30T07:33:54;18.30;;;11.93;;
20427;SDS011;10373;49.768;18.302;2022-08-30T07:36:20;18.63;;;11.40;;
20427;SDS011;10373;49.768;18.302;2022-08-30T07:38:48;15.45;;;10.68;;
20427;SDS011;10373;49.768;18.302;2022-08-30T07:41:15;14.73;;;7.97;;
20427;SDS011;10373;49.768;18.302;2022-08-30T07:43:43;16.30;;;11.00;;
20427;SDS011;10373;49.768;18.302;2022-08-30T07:46:09;21.90;;;14.75;;
20427;SDS011;10373;49.768;18.302;2022-08-30T07:48:35;22.48;;;14.93;;
20427;SDS011;10373;49.768;18.302;2022-08-30T07:51:01;21.40;;;12.82;;
20427;SDS011;10373;49.768;18.302;2022-08-30T07:53:28;19.77;;;11.60;;
20427;SDS011;10373;49.768;18.302;2022-08-30T07:55:54;15.35;;;10.15;;
20427;SDS011;10373;49.768;18.302;2022-08-30T07:58:20;13.52;;;8.93;;
20427;SDS011;10373;49.768;18.302;2022-08-30T08:00:46;13.27;;;9.55;;
20427;SDS011;10373;49.768;18.302;2022-08-30T08:03:12;15.77;;;9.52;;
20427;SDS011;10373;49.768;18.302;2022-08-30T08:05:38;11.45;;;9.10;;
20427;SDS011;10373;49.768;18.302;2022-08-30T08:08:05;12.75;;;8.32;;
20427;SDS011;10373;49.768;18.302;2022-08-30T08:10:32;10.73;;;7.38;;
20427;SDS011;10373;49.768;18.302;2022-08-30T08:12:59;10.00;;;6.10;;
20427;SDS011;10373;49.768;18.302;2022-08-30T08:15:25;10.75;;;6.07;;
20427;SDS011;10373;49.768;18.302;2022-08-30T08:17:52;7.03;;;4.88;;
20427;SDS011;10373;49.768;18.302;2022-08-30T08:20:17;4.70;;;3.58;;
20427;SDS011;10373;49.768;18.302;2022-08-30T08:22:43;7.90;;;4.72;;
20427;SDS011;10373;49.768;18.302;2022-08-30T08:25:09;7.05;;;5.35;;
20427;SDS011;10373;49.768;18.302;2022-08-30T08:27:34;5.68;;;3.80;;
20427;SDS011;10373;49.768;18.302;2022-08-30T08:30:00;4.32;;;3.40;;
20427;SDS011;10373;49.768;18.302;2022-08-30T08:32:26;4.03;;;3.17;;
20427;SDS011;10373;49.768;18.302;2022-08-30T08:34:51;4.22;;;3.00;;
20427;SDS011;10373;49.768;18.302;2022-08-30T08:37:17;4.72;;;3.22;;
20427;SDS011;10373;49.768;18.302;2022-08-30T08:39:43;8.43;;;3.45;;
20427;SDS011;10373;49.768;18.302;2022-08-30T08:42:12;3.88;;;2.92;;
20427;SDS011;10373;49.768;18.302;2022-08-30T08:50:41;3.45;;;2.70;;
20427;SDS011;10373;49.768;18.302;2022-08-30T08:53:28;4.72;;;2.90;;
20427;SDS011;10373;49.768;18.302;2022-08-30T08:56:05;3.85;;;2.80;;
20427;SDS011;10373;49.768;18.302;2022-08-30T08:58:43;3.63;;;2.78;;
20427;SDS011;10373;49.768;18.302;2022-08-30T09:01:13;4.05;;;2.70;;
20427;SDS011;10373;49.768;18.302;2022-08-30T09:03:42;2.72;;;2.20;;
20427;SDS011;10373;49.768;18.302;2022-08-30T09:08:48;4.03;;;2.70;;
20427;SDS011;10373;49.768;18.302;2022-08-30T09:11:17;4.32;;;2.58;;
20427;SDS011;10373;49.768;18.302;2022-08-30T09:13:47;3.05;;;2.38;;
20427;SDS011;10373;49.768;18.302;2022-08-30T09:16:43;3.85;;;2.42;;
20427;SDS011;10373;49.768;18.302;2022-08-30T09:19:10;3.67;;;2.40;;
20427;SDS011;10373;49.768;18.302;2022-08-30T09:21:36;3.20;;;2.47;;
20427;SDS011;10373;49.768;18.302;2022-08-30T09:24:03;3.40;;;2.47;;
20427;SDS011;10373;49.768;18.302;2022-08-30T09:26:34;4.10;;;2.58;;
20427;SDS011;10373;49.768;18.302;2022-08-30T09:29:01;4.82;;;2.70;;
20427;SDS011;10373;49.768;18.302;2022-08-30T09:31:33;3.72;;;2.28;;
20427;SDS011;10373;49.768;18.302;2022-08-30T09:34:20;4.32;;;2.92;;
20427;SDS011;10373;49.768;18.302;2022-08-30T09:36:51;4.38;;;3.10;;
20427;SDS011;10373;49.768;18.302;2022-08-30T09:41:54;3.17;;;2.83;;
20427;SDS011;10373;49.768;18.302;2022-08-30T09:44:39;4.15;;;2.65;;
20427;SDS011;10373;49.768;18.302;2022-08-30T09:47:04;5.07;;;2.92;;
20427;SDS011;10373;49.768;18.302;2022-08-30T09:49:50;2.80;;;2.35;;
20427;SDS011;10373;49.768;18.302;2022-08-30T09:57:50;6.05;;;2.70;;
20427;SDS011;10373;49.768;18.302;2022-08-30T10:00:20;5.95;;;3.80;;
20427;SDS011;10373;49.768;18.302;2022-08-30T10:05:34;6.22;;;3.05;;
20427;SDS011;10373;49.768;18.302;2022-08-30T10:11:04;2.97;;;2.50;;
20427;SDS011;10373;49.768;18.302;2022-08-30T10:13:41;4.40;;;3.13;;
20427;SDS011;10373;49.768;18.302;2022-08-30T10:19:15;3.75;;;2.65;;
20427;SDS011;10373;49.768;18.302;2022-08-30T10:21:45;3.80;;;2.55;;
20427;SDS011;10373;49.768;18.302;2022-08-30T10:24:13;3.22;;;2.60;;
20427;SDS011;10373;49.768;18.302;2022-08-30T10:26:45;5.47;;;3.08;;
20427;SDS011;10373;49.768;18.302;2022-08-30T10:29:18;4.13;;;2.92;;
20427;SDS011;10373;49.768;18.302;2022-08-30T10:34:25;4.82;;;3.20;;
20427;SDS011;10373;49.768;18.302;2022-08-30T10:37:14;4.40;;;3.05;;
20427;SDS011;10373;49.768;18.302;2022-08-30T10:39:47;3.72;;;2.60;;
20427;SDS011;10373;49.768;18.302;2022-08-30T10:45:00;4.15;;;2.92;;
20427;SDS011;10373;49.768;18.302;2022-08-30T10:47:56;2.67;;;2.22;;
20427;SDS011;10373;49.768;18.302;2022-08-30T10:50:49;3.33;;;2.55;;
20427;SDS011;10373;49.768;18.302;2022-08-30T10:53:18;5.07;;;2.90;;
20427;SDS011;10373;49.768;18.302;2022-08-30T10:55:59;3.75;;;2.60;;
20427;SDS011;10373;49.768;18.302;2022-08-30T10:58:31;4.63;;;3.08;;
20427;SDS011;10373;49.768;18.302;2022-08-30T11:09:50;4.00;;;2.10;;
20427;SDS011;10373;49.768;18.302;2022-08-30T11:12:37;4.25;;;2.80;;
20427;SDS011;10373;49.768;18.302;2022-08-30T11:15:26;4.40;;;2.45;;
20427;SDS011;10373;49.768;18.302;2022-08-30T11:17:57;2.45;;;2.10;;
20427;SDS011;10373;49.768;18.302;2022-08-30T11:20:29;3.35;;;2.08;;
20427;SDS011;10373;49.768;18.302;2022-08-30T11:23:12;6.57;;;2.35;;
20427;SDS011;10373;49.768;18.302;2022-08-30T11:34:01;2.65;;;1.90;;
20427;SDS011;10373;49.768;18.302;2022-08-30T11:41:29;1.90;;;1.67;;
20427;SDS011;10373;49.768;18.302;2022-08-30T11:43:55;1.98;;;1.80;;
20427;SDS011;10373;49.768;18.302;2022-08-30T11:46:39;2.30;;;1.80;;
20427;SDS011;10373;49.768;18.302;2022-08-30T11:57:19;3.40;;;2.40;;
20427;SDS011;10373;49.768;18.302;2022-08-30T12:03:01;2.88;;;1.70;;
20427;SDS011;10373;49.768;18.302;2022-08-30T12:08:02;2.13;;;1.50;;
20427;SDS011;10373;49.768;18.302;2022-08-30T12:11:04;1.60;;;1.35;;
20427;SDS011;10373;49.768;18.302;2022-08-30T12:16:08;4.28;;;1.85;;
20427;SDS011;10373;49.768;18.302;2022-08-30T12:18:45;5.28;;;3.03;;
20427;SDS011;10373;49.768;18.302;2022-08-30T12:21:13;4.88;;;2.63;;
20427;SDS011;10373;49.768;18.302;2022-08-30T12:28:50;1.60;;;1.50;;
20427;SDS011;10373;49.768;18.302;2022-08-30T12:31:44;2.63;;;2.00;;
20427;SDS011;10373;49.768;18.302;2022-08-30T12:37:00;1.35;;;1.25;;
20427;SDS011;10373;49.768;18.302;2022-08-30T12:39:45;1.40;;;1.20;;
20427;SDS011;10373;49.768;18.302;2022-08-30T12:42:27;1.30;;;1.20;;
20427;SDS011;10373;49.768;18.302;2022-08-30T12:44:57;2.22;;;1.40;;
20427;SDS011;10373;49.768;18.302;2022-08-30T12:47:27;2.42;;;1.60;;
20427;SDS011;10373;49.768;18.302;2022-08-30T12:50:09;1.60;;;1.42;;
20427;SDS011;10373;49.768;18.302;2022-08-30T12:52:40;2.58;;;1.50;;
20427;SDS011;10373;49.768;18.302;2022-08-30T12:55:13;1.67;;;1.30;;
20427;SDS011;10373;49.768;18.302;2022-08-30T13:00:37;1.40;;;1.05;;
20427;SDS011;10373;49.768;18.302;2022-08-30T13:03:05;1.35;;;1.25;;
20427;SDS011;10373;49.768;18.302;2022-08-30T13:05:50;1.70;;;1.30;;
20427;SDS011;10373;49.768;18.302;2022-08-30T13:18:45;1.10;;;1.05;;
20427;SDS011;10373;49.768;18.302;2022-08-30T13:21:28;0.82;;;0.82;;
20427;SDS011;10373;49.768;18.302;2022-08-30T13:23:59;1.00;;;0.90;;
20427;SDS011;10373;49.768;18.302;2022-08-30T13:26:27;1.25;;;1.10;;
20427;SDS011;10373;49.768;18.302;2022-08-30T13:28:57;1.60;;;1.10;;
20427;SDS011;10373;49.768;18.302;2022-08-30T13:31:25;1.05;;;1.00;;
20427;SDS011;10373;49.768;18.302;2022-08-30T13:33:52;1.50;;;1.13;;
20427;SDS011;10373;49.768;18.302;2022-08-30T13:36:20;1.08;;;0.98;;
20427;SDS011;10373;49.768;18.302;2022-08-30T13:38:49;0.80;;;0.75;;
20427;SDS011;10373;49.768;18.302;2022-08-30T13:41:15;1.10;;;1.00;;
20427;SDS011;10373;49.768;18.302;2022-08-30T13:43:41;1.10;;;1.00;;
20427;SDS011;10373;49.768;18.302;2022-08-30T13:46:07;1.05;;;0.82;;
20427;SDS011;10373;49.768;18.302;2022-08-30T13:48:36;1.67;;;0.80;;
20427;SDS011;10373;49.768;18.302;2022-08-30T13:51:02;1.58;;;1.40;;
20427;SDS011;10373;49.768;18.302;2022-08-30T13:53:27;3.20;;;1.10;;
20427;SDS011;10373;49.768;18.302;2022-08-30T13:55:53;1.30;;;1.20;;
20427;SDS011;10373;49.768;18.302;2022-08-30T13:58:19;1.10;;;1.00;;
20427;SDS011;10373;49.768;18.302;2022-08-30T14:00:44;1.95;;;1.17;;
20427;SDS011;10373;49.768;18.302;2022-08-30T14:03:11;1.20;;;1.10;;
20427;SDS011;10373;49.768;18.302;2022-08-30T14:05:37;1.08;;;0.98;;
20427;SDS011;10373;49.768;18.302;2022-08-30T14:08:05;1.52;;;1.20;;
20427;SDS011;10373;49.768;18.302;2022-08-30T14:10:33;0.90;;;0.80;;
20427;SDS011;10373;49.768;18.302;2022-08-30T14:12:59;1.10;;;1.00;;
20427;SDS011;10373;49.768;18.302;2022-08-30T14:15:25;1.17;;;1.00;;
20427;SDS011;10373;49.768;18.302;2022-08-30T14:17:51;1.17;;;1.08;;
20427;SDS011;10373;49.768;18.302;2022-08-30T14:20:17;1.17;;;1.15;;
20427;SDS011;10373;49.768;18.302;2022-08-30T14:22:43;1.23;;;1.13;;
20427;SDS011;10373;49.768;18.302;2022-08-30T14:25:09;1.55;;;1.38;;
20427;SDS011;10373;49.768;18.302;2022-08-30T14:27:34;1.92;;;1.05;;
20427;SDS011;10373;49.768;18.302;2022-08-30T14:30:00;1.27;;;1.17;;
20427;SDS011;10373;49.768;18.302;2022-08-30T14:32:26;1.20;;;1.10;;
20427;SDS011;10373;49.768;18.302;2022-08-30T14:34:52;4.75;;;1.38;;
20427;SDS011;10373;49.768;18.302;2022-08-30T14:37:17;2.47;;;1.70;;
20427;SDS011;10373;49.768;18.302;2022-08-30T14:39:43;1.50;;;1.40;;
20427;SDS011;10373;49.768;18.302;2022-08-30T14:42:09;3.17;;;1.40;;
20427;SDS011;10373;49.768;18.302;2022-08-30T14:44:36;1.60;;;1.45;;
20427;SDS011;10373;49.768;18.302;2022-08-30T14:47:02;1.23;;;1.13;;
20427;SDS011;10373;49.768;18.302;2022-08-30T14:49:28;2.35;;;1.20;;
20427;SDS011;10373;49.768;18.302;2022-08-30T14:51:55;1.42;;;1.20;;
20427;SDS011;10373;49.768;18.302;2022-08-30T14:54:23;2.22;;;1.80;;
20427;SDS011;10373;49.768;18.302;2022-08-30T14:56:50;3.85;;;2.30;;
20427;SDS011;10373;49.768;18.302;2022-08-30T14:59:16;1.70;;;1.60;;
20427;SDS011;10373;49.768;18.302;2022-08-30T15:01:42;2.42;;;1.35;;
20427;SDS011;10373;49.768;18.302;2022-08-30T15:04:09;1.90;;;1.48;;
20427;SDS011;10373;49.768;18.302;2022-08-30T15:06:36;1.40;;;1.30;;
20427;SDS011;10373;49.768;18.302;2022-08-30T15:09:04;1.80;;;1.48;;
20427;SDS011;10373;49.768;18.302;2022-08-30T15:11:30;1.88;;;1.40;;
20427;SDS011;10373;49.768;18.302;2022-08-30T15:13:56;1.85;;;1.40;;
20427;SDS011;10373;49.768;18.302;2022-08-30T15:16:23;2.38;;;1.50;;
20427;SDS011;10373;49.768;18.302;2022-08-30T15:18:51;2.58;;;1.73;;
20427;SDS011;10373;49.768;18.302;2022-08-30T15:21:21;1.80;;;1.67;;
20427;SDS011;10373;49.768;18.302;2022-08-30T15:23:51;1.92;;;1.73;;
20427;SDS011;10373;49.768;18.302;2022-08-30T15:26:17;2.00;;;1.80;;
20427;SDS011;10373;49.768;18.302;2022-08-30T15:28:43;1.75;;;1.63;;
20427;SDS011;10373;49.768;18.302;2022-08-30T15:31:09;1.50;;;1.40;;
20427;SDS011;10373;49.768;18.302;2022-08-30T15:33:35;1.92;;;1.67;;
20427;SDS011;10373;49.768;18.302;2022-08-30T15:36:02;3.15;;;1.65;;
20427;SDS011;10373;49.768;18.302;2022-08-30T15:38:28;1.63;;;1.52;;
20427;SDS011;10373;49.768;18.302;2022-08-30T15:40:55;1.80;;;1.70;;
20427;SDS011;10373;49.768;18.302;2022-08-30T15:43:26;2.10;;;1.90;;
20427;SDS011;10373;49.768;18.302;2022-08-30T15:45:52;1.50;;;1.40;;
20427;SDS011;10373;49.768;18.302;2022-08-30T15:48:18;3.00;;;2.45;;
20427;SDS011;10373;49.768;18.302;2022-08-30T15:50:44;2.30;;;1.60;;
20427;SDS011;10373;49.768;18.302;2022-08-30T15:53:10;2.20;;;1.83;;
20427;SDS011;10373;49.768;18.302;2022-08-30T15:55:36;1.95;;;1.67;;
20427;SDS011;10373;49.768;18.302;2022-08-30T15:58:02;3.03;;;2.22;;
20427;SDS011;10373;49.768;18.302;2022-08-30T16:00:27;2.15;;;1.85;;
20427;SDS011;10373;49.768;18.302;2022-08-30T16:02:53;2.40;;;1.83;;
20427;SDS011;10373;49.768;18.302;2022-08-30T16:05:19;2.05;;;1.90;;
20427;SDS011;10373;49.768;18.302;2022-08-30T16:07:48;2.40;;;2.20;;
20427;SDS011;10373;49.768;18.302;2022-08-30T16:10:14;2.75;;;2.03;;
20427;SDS011;10373;49.768;18.302;2022-08-30T16:12:40;2.28;;;1.80;;
20427;SDS011;10373;49.768;18.302;2022-08-30T16:15:06;3.13;;;2.05;;